Terminal Aerodrome Forecast
Issued by NWS St Louis, MO

Home | Current Version | Previous Version | Text Only | Print | Product List | Glossary On
Versions: 1 2 3 4 5 6 7 8 9 10 11 12 13 14 15 16 17
168
FTUS43 KLSX 272324
TAFCOU
TAF
KCOU 272324Z 2800/2824 29005KT P6SM VCTS SCT050CB BKN120
      TEMPO 2800/2801 VRB15G30KT 3SM TSRA BKN030CB
     FM280200 VRB04KT P6SM BKN250
     FM281500 10008KT P6SM FEW040 SCT250=

USA.gov is the U.S. government's official web portal to all federal, state and local government web resources and services.